createdAt,value
2018-07-07T00:00:42.856Z,11.70
2018-07-07T00:03:15.686Z,11.70
2018-07-07T00:05:44.816Z,11.60
2018-07-07T00:08:13.492Z,11.60
2018-07-07T00:10:43.627Z,11.60
2018-07-07T00:13:12.377Z,11.70
2018-07-07T00:15:41.191Z,11.70
2018-07-07T00:18:11.153Z,11.70
2018-07-07T00:20:40.764Z,11.60
2018-07-07T00:23:11.350Z,11.70
2018-07-07T00:25:40.241Z,11.90
2018-07-07T00:28:08.998Z,11.90
2018-07-07T00:30:39.800Z,12.00
2018-07-07T00:33:10.248Z,11.80
2018-07-07T00:35:39.499Z,11.80
2018-07-07T00:38:08.562Z,11.80
2018-07-07T00:40:56.833Z,11.80
2018-07-07T00:43:25.807Z,11.90
2018-07-07T00:45:57.287Z,12.00
2018-07-07T00:48:25.756Z,12.00
2018-07-07T00:50:54.462Z,12.10
2018-07-07T00:53:22.532Z,12.20
2018-07-07T00:55:50.781Z,12.30
2018-07-07T00:58:18.737Z,12.30
2018-07-07T01:00:53.471Z,12.40
2018-07-07T01:03:22.113Z,12.40
2018-07-07T01:05:50.407Z,12.40
2018-07-07T01:08:18.511Z,12.40
2018-07-07T01:10:46.530Z,12.40
2018-07-07T01:13:14.859Z,12.40
2018-07-07T01:15:43.090Z,12.50
2018-07-07T01:18:10.846Z,12.50
2018-07-07T01:20:38.796Z,12.50
2018-07-07T01:23:07.029Z,12.60
2018-07-07T01:25:34.684Z,12.70
2018-07-07T01:28:02.245Z,12.70
2018-07-07T01:30:29.949Z,12.80
2018-07-07T01:32:57.561Z,12.70
2018-07-07T01:35:25.361Z,12.70
2018-07-07T01:37:53.354Z,12.70
2018-07-07T01:40:21.028Z,12.60
2018-07-07T01:42:48.765Z,12.70
2018-07-07T01:45:16.384Z,12.60
2018-07-07T01:47:43.943Z,12.60
2018-07-07T01:50:11.447Z,12.60
2018-07-07T01:52:39.017Z,12.60
2018-07-07T01:55:06.526Z,12.60
2018-07-07T01:57:34.028Z,12.60
2018-07-07T02:00:01.730Z,12.60
2018-07-07T02:02:29.281Z,12.60
2018-07-07T02:04:56.844Z,12.50
2018-07-07T02:07:24.322Z,12.50
2018-07-07T02:09:51.978Z,12.40
2018-07-07T02:12:19.630Z,12.40
2018-07-07T02:17:15.204Z,12.30
2018-07-07T02:19:42.750Z,12.30
2018-07-07T02:22:13.989Z,12.30
2018-07-07T02:24:41.740Z,12.30
2018-07-07T02:27:09.427Z,12.20
2018-07-07T02:29:39.148Z,12.20
2018-07-07T02:32:08.106Z,12.10
2018-07-07T02:34:43.148Z,12.00
2018-07-07T02:37:22.307Z,12.00
2018-07-07T02:39:52.201Z,12.00
2018-07-07T02:42:21.347Z,11.90
2018-07-07T02:44:50.189Z,12.00
2018-07-07T02:47:20.377Z,12.00
2018-07-07T02:49:48.672Z,12.10
2018-07-07T02:52:19.266Z,12.10
2018-07-07T02:54:47.470Z,12.10
2018-07-07T02:57:15.593Z,12.10
2018-07-07T02:59:44.986Z,12.10
2018-07-07T03:02:13.830Z,12.00
2018-07-07T03:04:42.289Z,12.10
2018-07-07T03:07:11.270Z,12.20
2018-07-07T03:09:39.700Z,12.40
2018-07-07T03:12:07.456Z,12.50
2018-07-07T03:14:35.181Z,12.60
2018-07-07T03:17:02.872Z,12.80
2018-07-07T03:19:30.375Z,12.90
2018-07-07T03:21:57.840Z,13.10
2018-07-07T03:24:25.425Z,13.30
2018-07-07T03:26:52.949Z,13.40
2018-07-07T03:29:20.511Z,13.60
2018-07-07T03:31:48.449Z,13.70
2018-07-07T03:34:15.962Z,13.90
2018-07-07T03:36:44.187Z,14.30
2018-07-07T03:39:12.314Z,14.60
2018-07-07T03:41:39.937Z,14.80
2018-07-07T03:44:07.740Z,15.00
2018-07-07T03:46:59.922Z,15.10
2018-07-07T03:49:27.695Z,15.20
2018-07-07T03:51:55.186Z,15.30
2018-07-07T03:54:25.402Z,15.30
2018-07-07T03:56:53.204Z,15.40
2018-07-07T03:59:21.263Z,15.40
2018-07-07T04:01:49.813Z,15.40
2018-07-07T04:04:18.764Z,15.40
2018-07-07T04:06:50.149Z,15.40
2018-07-07T04:09:18.554Z,15.50
2018-07-07T04:11:47.131Z,15.50
2018-07-07T04:14:14.839Z,15.60
2018-07-07T04:16:42.345Z,15.60
2018-07-07T04:19:10.005Z,15.90
2018-07-07T04:21:37.560Z,16.40
2018-07-07T04:24:05.095Z,17.00
2018-07-07T04:26:32.786Z,17.50
2018-07-07T04:29:03.678Z,17.40
2018-07-07T04:31:32.944Z,17.20
2018-07-07T04:34:01.152Z,16.90
2018-07-07T04:36:31.902Z,16.70
2018-07-07T04:41:52.349Z,16.60
2018-07-07T04:44:21.876Z,16.50
2018-07-07T04:46:50.294Z,16.60
2018-07-07T04:49:19.524Z,16.60
2018-07-07T04:51:50.721Z,16.70
2018-07-07T04:54:20.980Z,16.70
2018-07-07T04:56:56.761Z,16.70
2018-07-07T04:59:28.750Z,16.70
2018-07-07T05:01:57.257Z,16.80
2018-07-07T05:04:25.134Z,16.90
2018-07-07T05:06:57.203Z,16.90
2018-07-07T05:09:29.637Z,16.90
2018-07-07T05:14:26.933Z,16.80
2018-07-07T05:16:55.227Z,16.80
2018-07-07T05:21:52.465Z,17.00
2018-07-07T05:24:20.153Z,17.20
2018-07-07T05:26:47.760Z,17.20
2018-07-07T05:29:15.344Z,17.20
2018-07-07T05:31:43.788Z,17.20
2018-07-07T05:34:11.566Z,17.30
2018-07-07T05:40:58.657Z,17.40
2018-07-07T05:43:35.479Z,17.50
2018-07-07T05:46:32.641Z,17.30
2018-07-07T05:49:00.286Z,17.10
2018-07-07T05:51:30.498Z,16.80
2018-07-07T05:53:58.338Z,16.70
2018-07-07T05:56:28.437Z,16.70
2018-07-07T06:01:47.581Z,16.80
2018-07-07T06:04:16.044Z,16.80
2018-07-07T06:06:44.593Z,16.90
2018-07-07T06:09:12.505Z,17.10
2018-07-07T06:11:40.855Z,17.40
2018-07-07T06:14:08.889Z,17.70
2018-07-07T06:16:42.072Z,17.90
2018-07-07T06:19:10.073Z,18.00
2018-07-07T06:21:37.925Z,18.20
2018-07-07T06:24:05.937Z,18.40
2018-07-07T06:26:34.933Z,18.40
2018-07-07T06:29:03.237Z,18.50
2018-07-07T06:31:31.044Z,18.60
2018-07-07T06:33:58.645Z,18.60
2018-07-07T06:36:26.283Z,18.60
2018-07-07T06:38:58.194Z,18.50
2018-07-07T06:41:26.605Z,18.20
2018-07-07T06:43:56.022Z,18.30
2018-07-07T06:46:23.853Z,18.90
2018-07-07T06:48:52.334Z,19.60
2018-07-07T06:51:20.081Z,20.30
2018-07-07T06:53:49.942Z,20.60
2018-07-07T06:56:19.246Z,20.60
2018-07-07T06:58:49.910Z,20.40
2018-07-07T07:01:19.062Z,20.80
2018-07-07T07:03:48.530Z,22.00
2018-07-07T07:06:16.581Z,23.00
2018-07-07T07:08:46.241Z,23.00
2018-07-07T07:11:14.687Z,22.90
2018-07-07T07:13:44.107Z,23.10
2018-07-07T07:16:12.285Z,22.70
2018-07-07T07:18:40.368Z,22.70
2018-07-07T07:21:08.091Z,22.00
2018-07-07T07:23:35.855Z,21.30
2018-07-07T07:26:03.415Z,20.90
2018-07-07T07:28:36.549Z,20.70
2018-07-07T07:31:09.176Z,20.60
2018-07-07T07:33:39.183Z,20.60
2018-07-07T07:36:13.057Z,20.70
2018-07-07T07:38:44.588Z,20.60
2018-07-07T07:43:42.498Z,20.30
2018-07-07T07:46:13.383Z,20.40
2018-07-07T07:48:41.379Z,20.70
2018-07-07T07:51:09.698Z,20.60
2018-07-07T07:53:38.234Z,20.80
2018-07-07T07:56:10.530Z,21.10
2018-07-07T08:03:19.448Z,22.10
2018-07-07T08:05:49.407Z,21.90
2018-07-07T08:08:18.704Z,22.00
2018-07-07T08:11:05.123Z,22.30
2018-07-07T08:13:52.515Z,22.70
2018-07-07T08:19:21.514Z,23.20
2018-07-07T08:22:20.325Z,23.50
2018-07-07T08:24:58.211Z,24.00
2018-07-07T08:30:42.923Z,23.80
2018-07-07T08:33:19.761Z,23.50
2018-07-07T08:35:55.498Z,23.40
2018-07-07T08:38:25.339Z,23.00
2018-07-07T08:40:58.812Z,22.80
2018-07-07T08:43:34.103Z,22.60
2018-07-07T08:46:05.759Z,22.70
2018-07-07T08:48:38.496Z,22.70
2018-07-07T08:51:12.195Z,23.00
2018-07-07T08:53:42.041Z,22.90
2018-07-07T08:56:30.244Z,22.90
2018-07-07T09:26:55.454Z,22.50
2018-07-07T09:29:42.460Z,22.60
2018-07-07T09:32:37.273Z,22.90
2018-07-07T09:43:27.980Z,23.40
2018-07-07T09:49:11.000Z,23.80
2018-07-07T09:51:50.909Z,23.70
2018-07-07T09:54:37.894Z,23.70
2018-07-07T09:57:35.320Z,23.60
2018-07-07T10:00:16.701Z,23.60
2018-07-07T10:05:57.724Z,23.40
2018-07-07T10:08:36.758Z,23.70
2018-07-07T10:11:46.320Z,24.10
2018-07-07T10:17:31.968Z,24.30
2018-07-07T10:25:19.047Z,23.60
2018-07-07T10:27:52.852Z,23.20
2018-07-07T10:45:22.905Z,24.30
2018-07-07T10:48:21.771Z,24.60
2018-07-07T10:54:19.523Z,24.60
2018-07-07T10:56:54.071Z,24.20
2018-07-07T10:59:30.002Z,24.20
2018-07-07T11:10:10.241Z,24.30
2018-07-07T11:19:10.948Z,24.80
2018-07-07T11:22:18.371Z,25.00
2018-07-07T11:25:02.255Z,24.90
2018-07-07T11:34:29.456Z,24.40
2018-07-07T11:41:30.152Z,24.00
2018-07-07T11:48:35.095Z,24.00
2018-07-07T11:52:07.275Z,24.70
2018-07-07T11:55:16.877Z,24.60
2018-07-07T11:58:56.601Z,24.60
2018-07-07T12:23:31.989Z,24.20
2018-07-07T12:38:14.994Z,24.90
2018-07-07T12:40:50.360Z,25.30
2018-07-07T12:43:54.026Z,25.70
2018-07-07T13:02:28.964Z,26.60
2018-07-07T13:09:28.377Z,25.80
2018-07-07T13:12:16.086Z,25.30
2018-07-07T13:15:25.465Z,24.10
2018-07-07T13:23:39.653Z,23.90
2018-07-07T13:26:18.943Z,23.80
2018-07-07T13:29:09.934Z,24.50
2018-07-07T13:32:37.746Z,25.00
2018-07-07T13:36:16.768Z,25.30
2018-07-07T13:52:23.451Z,25.80
2018-07-07T14:13:16.234Z,25.30
2018-07-07T14:16:25.987Z,25.40
2018-07-07T14:21:18.478Z,25.10
2018-07-07T14:31:43.293Z,25.80
2018-07-07T14:40:41.198Z,25.90
2018-07-07T14:43:57.022Z,26.10
2018-07-07T14:56:17.323Z,26.60
2018-07-07T15:29:12.527Z,27.60
2018-07-07T15:32:08.636Z,27.70
2018-07-07T16:42:44.211Z,25.30
2018-07-07T16:45:52.432Z,25.50
2018-07-07T16:48:46.244Z,25.40
2018-07-07T17:07:03.033Z,24.00
2018-07-07T17:09:40.896Z,23.40
2018-07-07T17:15:04.727Z,22.60
2018-07-07T17:17:41.248Z,22.40
2018-07-07T17:30:02.162Z,22.20
2018-07-07T17:32:41.006Z,22.20
2018-07-07T17:35:19.519Z,22.20
2018-07-07T17:38:09.084Z,22.20
2018-07-07T17:43:46.029Z,22.10
2018-07-07T17:46:18.955Z,22.00
2018-07-07T17:48:54.113Z,21.90
2018-07-07T17:51:58.722Z,21.90
2018-07-07T17:54:35.693Z,22.00
2018-07-07T17:57:08.329Z,22.30
2018-07-07T18:09:34.744Z,22.60
2018-07-07T18:12:13.181Z,22.50
2018-07-07T18:14:42.996Z,22.10
2018-07-07T18:17:14.399Z,22.20
2018-07-07T18:19:46.082Z,22.10
2018-07-07T18:22:25.212Z,21.80
2018-07-07T18:25:14.671Z,21.80
2018-07-07T18:32:34.500Z,21.50
2018-07-07T18:35:14.483Z,21.40
2018-07-07T18:37:48.156Z,21.50
2018-07-07T18:40:26.684Z,21.70
2018-07-07T18:43:02.152Z,21.80
2018-07-07T18:48:45.624Z,21.80
2018-07-07T18:51:20.900Z,21.70
2018-07-07T18:54:05.502Z,21.40
2018-07-07T18:56:40.037Z,21.30
2018-07-07T18:59:14.394Z,21.00
2018-07-07T19:01:55.970Z,21.20
2018-07-07T19:04:31.419Z,21.00
2018-07-07T19:07:09.550Z,20.80
2018-07-07T19:09:42.180Z,20.60
2018-07-07T19:12:19.029Z,20.40
2018-07-07T19:18:49.834Z,20.40
2018-07-07T19:21:26.629Z,20.30
2018-07-07T19:24:12.851Z,20.10
2018-07-07T19:42:41.882Z,20.00
2018-07-07T19:45:11.873Z,19.30
2018-07-07T19:47:45.531Z,19.20
2018-07-07T19:50:19.156Z,19.10
2018-07-07T19:55:32.268Z,19.10
2018-07-07T19:58:04.975Z,19.10
2018-07-07T20:00:52.365Z,19.10
2018-07-07T20:05:31.120Z,19.00
2018-07-07T20:10:38.758Z,18.90
2018-07-07T20:13:10.770Z,18.70
2018-07-07T20:15:58.434Z,18.60
2018-07-07T20:18:39.439Z,18.60
2018-07-07T20:21:24.938Z,18.60
2018-07-07T20:23:55.099Z,18.60
2018-07-07T20:26:24.433Z,18.50
2018-07-07T20:31:55.544Z,18.40
2018-07-07T20:34:25.661Z,18.30
2018-07-07T20:36:56.805Z,18.30
2018-07-07T20:39:38.164Z,18.20
2018-07-07T20:42:07.403Z,18.10
2018-07-07T20:49:29.505Z,18.10
2018-07-07T20:51:58.656Z,18.00
2018-07-07T20:54:27.515Z,17.70
2018-07-07T20:56:57.553Z,17.60
2018-07-07T20:59:27.974Z,17.50
2018-07-07T21:01:56.620Z,17.50
2018-07-07T21:04:25.770Z,17.40
2018-07-07T21:06:54.794Z,17.40
2018-07-07T21:09:24.607Z,17.30
2018-07-07T21:11:53.501Z,17.30
2018-07-07T21:14:29.715Z,17.30
2018-07-07T21:19:39.388Z,17.20
2018-07-07T21:22:08.082Z,17.10
2018-07-07T21:24:37.007Z,17.00
2018-07-07T21:27:06.456Z,17.00
2018-07-07T21:29:35.768Z,16.90
2018-07-07T21:32:04.562Z,16.80
2018-07-07T21:34:34.762Z,16.90
2018-07-07T21:37:03.949Z,16.80
2018-07-07T21:39:33.300Z,16.70
2018-07-07T21:42:03.590Z,16.70
2018-07-07T21:44:32.407Z,16.60
2018-07-07T21:47:01.788Z,16.50
2018-07-07T21:49:32.499Z,16.50
2018-07-07T21:52:02.080Z,16.50
2018-07-07T21:54:31.255Z,16.50
2018-07-07T21:57:00.770Z,16.50
2018-07-07T21:59:29.272Z,16.30
2018-07-07T22:02:04.112Z,16.20
2018-07-07T22:04:39.400Z,16.10
2018-07-07T22:07:14.573Z,15.90
2018-07-07T22:09:44.194Z,15.80
2018-07-07T22:12:43.817Z,15.70
2018-07-07T22:15:16.059Z,15.60
2018-07-07T22:17:53.062Z,15.60
2018-07-07T22:20:32.497Z,15.40
2018-07-07T22:23:04.231Z,15.20
2018-07-07T22:25:35.095Z,14.90
2018-07-07T22:28:10.205Z,14.80
2018-07-07T22:30:40.226Z,14.80
2018-07-07T22:36:34.796Z,14.90
2018-07-07T22:39:07.162Z,14.80
2018-07-07T22:41:52.245Z,14.70
2018-07-07T22:44:21.032Z,14.60
2018-07-07T22:46:52.745Z,14.60
2018-07-07T22:49:22.815Z,14.50
2018-07-07T22:51:51.813Z,14.50
2018-07-07T22:54:22.228Z,14.30
2018-07-07T22:56:51.636Z,14.20
2018-07-07T23:01:49.202Z,14.10
2018-07-07T23:04:17.659Z,14.10
2018-07-07T23:06:45.863Z,14.00
2018-07-07T23:09:15.232Z,13.70
2018-07-07T23:11:43.034Z,13.60
2018-07-07T23:14:10.895Z,13.50
2018-07-07T23:16:38.880Z,13.50
2018-07-07T23:19:07.228Z,13.50
2018-07-07T23:21:35.156Z,13.50
2018-07-07T23:24:03.552Z,13.40
2018-07-07T23:26:31.729Z,13.30
2018-07-07T23:29:07.030Z,13.30
2018-07-07T23:31:34.653Z,13.40
2018-07-07T23:34:02.982Z,13.40
2018-07-07T23:36:30.974Z,13.30
2018-07-07T23:38:58.646Z,13.10
2018-07-07T23:41:26.203Z,13.00
2018-07-07T23:43:53.954Z,12.90
2018-07-07T23:46:21.692Z,12.90
2018-07-07T23:48:49.521Z,12.90
2018-07-07T23:51:17.473Z,12.80
2018-07-07T23:53:45.395Z,12.80
2018-07-07T23:56:13.291Z,12.70
2018-07-07T23:58:41.269Z,12.70
